Time;durP1;ratioP1;P1;durP2;ratioP2;P2;SDS_P1;SDS_P2;PMS_P1;PMS_P2;Temp;Humidity;BMP_temperature;BMP_pressure;BME280_temperature;BME280_humidity;BME280_pressure;Samples;Min_cycle;Max_cycle;Signal;HPM_P1;HPM_P2
2021/06/19 00:00:36;;;;;;;8.43;7.65;;;19.50;91.70;;;;;;5033246;28;20544;-72
2021/06/19 00:03:03;;;;;;;9.05;8.20;;;19.40;91.70;;;;;;5034391;28;20032;-72
2021/06/19 00:05:29;;;;;;;12.10;8.27;;;19.40;92.70;;;;;;5033187;28;20045;-72
2021/06/19 00:07:56;;;;;;;11.00;7.75;;;19.40;92.00;;;;;;5046425;28;20021;-73
2021/06/19 00:10:22;;;;;;;8.73;7.38;;;19.30;91.50;;;;;;5034297;28;20159;-72
2021/06/19 00:12:49;;;;;;;9.98;8.15;;;19.30;93.30;;;;;;5041343;28;20051;-73
2021/06/19 00:15:16;;;;;;;9.00;8.10;;;19.20;93.50;;;;;;5054009;28;20037;-73
2021/06/19 00:17:43;;;;;;;8.10;7.28;;;19.20;92.00;;;;;;5054242;28;20021;-72
2021/06/19 00:20:12;;;;;;;9.93;8.38;;;19.20;93.60;;;;;;5053842;28;20536;-72
2021/06/19 00:22:38;;;;;;;12.38;9.15;;;19.10;94.50;;;;;;5054060;28;20021;-72
2021/06/19 00:25:06;;;;;;;10.18;9.10;;;19.10;95.40;;;;;;5044465;28;20021;-72
2021/06/19 00:27:32;;;;;;;10.10;8.43;;;19.00;95.10;;;;;;5034101;28;20021;-72
2021/06/19 00:29:58;;;;;;;10.02;7.85;;;19.00;95.10;;;;;;5033664;28;20044;-72
2021/06/19 00:32:23;;;;;;;9.63;8.52;;;18.90;95.30;;;;;;5033909;28;20098;-73
2021/06/19 00:34:49;;;;;;;10.93;7.57;;;18.90;95.60;;;;;;5033825;28;20418;-72
2021/06/19 00:37:15;;;;;;;9.75;7.80;;;18.90;96.40;;;;;;5032457;28;20021;-72
2021/06/19 00:39:41;;;;;;;8.60;7.25;;;18.90;96.20;;;;;;5030370;28;20041;-72
2021/06/19 00:42:06;;;;;;;9.05;8.15;;;18.80;95.80;;;;;;5031622;28;20025;-72
2021/06/19 00:44:32;;;;;;;8.30;7.50;;;18.80;95.30;;;;;;5031656;28;20065;-72
2021/06/19 00:46:58;;;;;;;10.10;8.02;;;18.80;95.80;;;;;;5031555;28;20052;-73
2021/06/19 00:49:25;;;;;;;10.00;8.05;;;18.80;96.50;;;;;;5031395;28;20459;-72
2021/06/19 00:51:51;;;;;;;8.82;7.47;;;18.80;96.90;;;;;;5031509;28;20026;-72
2021/06/19 00:54:18;;;;;;;9.27;8.00;;;18.70;97.50;;;;;;5029983;28;20053;-72
2021/06/19 00:56:45;;;;;;;9.30;8.27;;;18.70;98.20;;;;;;5031462;28;20104;-72
2021/06/19 00:59:11;;;;;;;10.18;7.93;;;18.60;98.00;;;;;;5031084;28;20116;-72
2021/06/19 01:01:38;;;;;;;9.50;8.40;;;18.60;98.70;;;;;;5041257;28;20225;-72
2021/06/19 01:04:05;;;;;;;10.38;7.97;;;18.60;99.20;;;;;;5051000;28;20483;-72
2021/06/19 01:09:54;;;;;;;9.93;8.57;;;18.50;98.20;;;;;;5053194;28;20500;-72
2021/06/19 01:12:23;;;;;;;8.45;7.55;;;18.50;98.80;;;;;;5051893;28;20027;-73
2021/06/19 01:14:56;;;;;;;9.85;8.85;;;18.50;97.70;;;;;;5052948;28;20017;-72
2021/06/19 01:17:23;;;;;;;9.75;8.75;;;18.50;99.70;;;;;;5053101;28;20028;-72
2021/06/19 01:20:14;;;;;;;9.70;8.23;;;18.40;99.70;;;;;;5052994;28;20123;-72
2021/06/19 01:22:42;;;;;;;13.60;8.77;;;18.40;99.80;;;;;;5053205;28;20083;-72
2021/06/19 01:25:10;;;;;;;11.40;8.10;;;18.40;99.30;;;;;;5052945;28;20371;-72
2021/06/19 01:27:37;;;;;;;8.82;7.90;;;18.40;99.30;;;;;;5052923;28;20096;-72
2021/06/19 01:30:06;;;;;;;9.15;7.63;;;18.40;99.80;;;;;;5052845;28;20474;-72
2021/06/19 01:32:35;;;;;;;9.45;8.07;;;18.40;99.80;;;;;;5052525;28;20021;-73
2021/06/19 01:35:01;;;;;;;9.40;8.60;;;18.30;99.60;;;;;;5052828;28;20029;-72
2021/06/19 01:37:27;;;;;;;10.50;8.70;;;18.30;99.30;;;;;;5052871;28;20374;-72
2021/06/19 01:40:05;;;;;;;9.45;7.40;;;18.30;99.80;;;;;;5052963;28;20108;-72
2021/06/19 01:42:31;;;;;;;9.50;8.50;;;18.30;99.90;;;;;;5051534;28;20024;-72
2021/06/19 01:44:57;;;;;;;8.23;7.43;;;18.30;99.70;;;;;;5052966;28;20037;-72
2021/06/19 01:47:22;;;;;;;9.18;7.75;;;18.30;99.40;;;;;;5052746;28;20513;-73
2021/06/19 01:49:48;;;;;;;9.60;8.63;;;18.30;99.90;;;;;;5051463;28;20021;-72
2021/06/19 01:52:18;;;;;;;9.18;8.30;;;18.30;99.90;;;;;;5052635;28;20103;-73
2021/06/19 01:54:44;;;;;;;9.40;8.35;;;18.30;99.90;;;;;;5051753;28;20470;-72
2021/06/19 01:57:09;;;;;;;13.63;8.25;;;18.20;99.90;;;;;;5052644;28;20036;-72
2021/06/19 01:59:35;;;;;;;9.27;8.38;;;18.20;99.90;;;;;;5052193;28;20048;-72
2021/06/19 02:02:03;;;;;;;10.38;7.70;;;18.20;99.90;;;;;;5038249;28;20026;-72
2021/06/19 02:04:31;;;;;;;10.55;8.25;;;18.10;99.90;;;;;;5032653;28;20028;-72
2021/06/19 02:06:56;;;;;;;10.80;8.75;;;18.10;99.90;;;;;;5031388;28;20406;-72
2021/06/19 02:09:22;;;;;;;9.85;7.82;;;18.10;99.90;;;;;;5032561;28;20017;-72
2021/06/19 02:11:48;;;;;;;9.07;8.27;;;18.10;99.90;;;;;;5032748;28;20469;-72
2021/06/19 02:14:15;;;;;;;9.13;8.23;;;18.10;99.90;;;;;;5051427;28;20032;-72
2021/06/19 02:16:41;;;;;;;10.55;9.52;;;18.10;99.90;;;;;;5053021;28;20025;-73
2021/06/19 02:19:07;;;;;;;8.77;7.97;;;18.10;99.90;;;;;;5055936;28;20095;-72
2021/06/19 02:21:33;;;;;;;8.70;7.82;;;18.10;99.90;;;;;;5055062;28;20028;-73
2021/06/19 02:23:58;;;;;;;12.90;9.18;;;18.10;99.90;;;;;;5056238;28;20028;-72
2021/06/19 02:26:24;;;;;;;13.70;8.55;;;18.10;99.90;;;;;;5054778;28;20119;-73
2021/06/19 02:28:49;;;;;;;12.38;8.43;;;18.10;99.90;;;;;;5056274;28;20033;-73
2021/06/19 02:31:16;;;;;;;10.80;8.93;;;18.10;99.90;;;;;;5055866;28;20031;-73
2021/06/19 02:33:43;;;;;;;9.23;8.23;;;18.00;99.90;;;;;;5059497;28;20071;-73
2021/06/19 02:36:09;;;;;;;9.20;8.15;;;18.00;99.90;;;;;;5043212;28;20028;-72
2021/06/19 02:38:35;;;;;;;9.73;8.25;;;18.00;99.90;;;;;;5054839;28;20017;-73
2021/06/19 02:41:01;;;;;;;12.95;8.63;;;18.00;99.90;;;;;;5054577;28;20129;-72
2021/06/19 02:43:27;;;;;;;9.50;8.50;;;18.00;99.90;;;;;;5055744;28;20448;-73
2021/06/19 02:45:52;;;;;;;10.15;8.43;;;18.10;99.90;;;;;;5054458;28;20547;-72
2021/06/19 02:48:18;;;;;;;9.30;8.35;;;18.00;99.90;;;;;;5055820;28;20408;-72
2021/06/19 02:50:44;;;;;;;10.95;8.73;;;18.10;99.90;;;;;;5040390;28;20087;-72
2021/06/19 02:53:12;;;;;;;9.43;8.15;;;18.10;99.90;;;;;;5034490;28;20112;-73
2021/06/19 02:55:40;;;;;;;10.02;8.43;;;18.10;99.90;;;;;;5035659;28;20028;-72
2021/06/19 02:58:08;;;;;;;12.23;8.90;;;18.10;98.90;;;;;;5051173;28;20032;-72
2021/06/19 03:00:34;;;;;;;8.95;8.05;;;18.20;99.20;;;;;;5053715;28;20041;-72
2021/06/19 03:03:01;;;;;;;8.40;7.70;;;18.20;99.40;;;;;;5054308;28;20367;-73
2021/06/19 03:05:29;;;;;;;10.48;8.50;;;18.20;98.10;;;;;;5055182;28;20032;-72
2021/06/19 03:07:55;;;;;;;11.00;8.07;;;18.30;98.10;;;;;;5055236;28;20509;-72
2021/06/19 03:10:27;;;;;;;9.20;8.30;;;18.30;99.10;;;;;;5054464;28;20020;-72
2021/06/19 03:12:52;;;;;;;12.73;8.65;;;18.30;99.90;;;;;;5054582;28;20028;-72
2021/06/19 03:15:18;;;;;;;9.95;7.93;;;18.30;99.90;;;;;;5053300;28;20025;-72
2021/06/19 03:17:44;;;;;;;10.43;8.93;;;18.40;99.00;;;;;;5054012;28;20025;-72
2021/06/19 03:20:13;;;;;;;9.70;7.90;;;18.40;97.90;;;;;;5054929;28;20033;-72
2021/06/19 03:22:42;;;;;;;12.40;8.02;;;18.50;99.10;;;;;;5055235;28;20027;-72
2021/06/19 03:25:09;;;;;;;9.65;7.90;;;18.70;98.40;;;;;;5054645;28;20105;-72
2021/06/19 03:27:35;;;;;;;11.45;8.25;;;18.80;97.60;;;;;;5053606;28;20033;-72
2021/06/19 03:30:01;;;;;;;8.57;7.78;;;19.00;96.00;;;;;;5054141;28;20466;-72
2021/06/19 03:32:26;;;;;;;11.30;7.20;;;19.30;93.50;;;;;;5053470;28;20482;-73
2021/06/19 03:34:52;;;;;;;9.48;8.20;;;19.50;90.70;;;;;;5038076;28;20376;-72
2021/06/19 03:37:17;;;;;;;8.68;7.38;;;19.60;90.00;;;;;;5034936;28;20071;-74
2021/06/19 03:39:43;;;;;;;10.30;7.70;;;19.90;88.80;;;;;;5046882;28;20041;-73
2021/06/19 03:42:09;;;;;;;8.25;7.53;;;20.00;87.10;;;;;;5053575;28;20398;-72
2021/06/19 03:44:35;;;;;;;8.27;7.50;;;20.30;86.10;;;;;;5054905;28;20036;-72
2021/06/19 03:47:00;;;;;;;11.38;8.10;;;20.40;84.50;;;;;;5054683;28;20445;-72
2021/06/19 03:49:26;;;;;;;10.70;7.80;;;20.60;83.30;;;;;;5048677;28;20025;-72
2021/06/19 03:51:52;;;;;;;8.20;7.35;;;20.70;81.50;;;;;;5054692;28;20108;-74
2021/06/19 03:54:19;;;;;;;9.40;6.82;;;20.80;81.40;;;;;;5053194;28;20083;-73
2021/06/19 03:56:45;;;;;;;10.60;7.07;;;20.80;79.70;;;;;;5054635;28;20069;-72
2021/06/19 03:59:11;;;;;;;7.53;6.70;;;20.90;79.20;;;;;;5054298;28;20099;-72
2021/06/19 04:01:36;;;;;;;10.32;7.65;;;21.00;79.10;;;;;;5052850;28;20029;-73
2021/06/19 04:04:02;;;;;;;8.88;7.97;;;21.00;78.40;;;;;;5053021;28;20025;-72
2021/06/19 04:06:28;;;;;;;8.55;7.15;;;21.10;78.60;;;;;;5052964;28;20030;-73
2021/06/19 04:08:53;;;;;;;8.40;7.55;;;21.10;78.50;;;;;;5053922;28;20029;-72
2021/06/19 04:11:19;;;;;;;8.48;7.35;;;21.30;79.30;;;;;;5054346;28;20417;-73
2021/06/19 04:13:45;;;;;;;7.93;7.10;;;21.40;77.60;;;;;;5054372;28;20385;-73
2021/06/19 04:16:11;;;;;;;9.50;8.07;;;21.40;77.90;;;;;;5054128;28;20450;-72
2021/06/19 04:18:40;;;;;;;10.77;8.77;;;21.50;77.80;;;;;;5054271;28;20049;-72
2021/06/19 04:21:07;;;;;;;9.15;7.68;;;21.50;78.90;;;;;;5053906;28;20094;-72
2021/06/19 04:23:33;;;;;;;9.00;7.60;;;21.40;78.90;;;;;;5053849;28;20043;-73
2021/06/19 04:26:00;;;;;;;7.68;6.85;;;21.50;77.80;;;;;;5053948;28;20025;-72
2021/06/19 04:28:26;;;;;;;10.00;8.07;;;21.50;77.00;;;;;;5053982;28;20037;-72
2021/06/19 04:30:53;;;;;;;15.18;7.78;;;21.60;77.00;;;;;;5053627;28;20036;-72
2021/06/19 04:33:19;;;;;;;12.05;7.55;;;21.50;77.40;;;;;;5040572;28;20021;-72
2021/06/19 04:35:45;;;;;;;8.75;7.10;;;21.60;77.60;;;;;;5032524;28;20083;-72
2021/06/19 04:38:10;;;;;;;8.13;6.97;;;21.60;78.10;;;;;;5033748;28;20021;-72
2021/06/19 04:40:45;;;;;;;8.68;7.15;;;21.70;77.60;;;;;;5036785;28;20041;-72
2021/06/19 04:43:11;;;;;;;8.13;7.40;;;21.70;78.10;;;;;;5052712;28;20031;-72
2021/06/19 04:45:38;;;;;;;9.23;6.97;;;21.70;77.60;;;;;;5051888;28;20032;-72
2021/06/19 04:48:06;;;;;;;12.70;8.68;;;21.60;77.90;;;;;;5050163;28;20021;-72
2021/06/19 04:50:34;;;;;;;9.38;7.57;;;21.70;78.50;;;;;;5051861;28;20017;-72
2021/06/19 04:53:01;;;;;;;9.25;7.18;;;21.70;78.40;;;;;;5050725;28;20013;-72
2021/06/19 04:55:27;;;;;;;8.65;7.40;;;21.70;78.90;;;;;;5047885;28;20068;-72
2021/06/19 04:57:56;;;;;;;8.30;7.15;;;21.80;79.00;;;;;;5032822;28;20029;-72
2021/06/19 05:00:25;;;;;;;7.93;7.15;;;21.80;77.60;;;;;;5032207;28;20069;-72
2021/06/19 05:02:51;;;;;;;9.73;7.18;;;21.90;78.50;;;;;;5040537;28;20044;-72
2021/06/19 05:05:18;;;;;;;8.07;7.25;;;22.00;78.20;;;;;;5051426;28;20025;-73
2021/06/19 05:07:43;;;;;;;9.00;6.75;;;22.10;78.30;;;;;;5050011;28;20020;-74
2021/06/19 05:10:10;;;;;;;8.15;7.30;;;22.10;77.30;;;;;;5050045;28;20032;-72
2021/06/19 05:12:42;;;;;;;8.30;6.63;;;22.30;77.10;;;;;;5051195;28;20474;-73
2021/06/19 05:15:09;;;;;;;8.05;6.97;;;22.30;76.00;;;;;;5051523;28;20027;-72
2021/06/19 05:17:34;;;;;;;13.10;6.80;;;22.40;75.10;;;;;;5053108;28;20021;-73
2021/06/19 05:20:00;;;;;;;8.45;6.10;;;22.50;75.40;;;;;;5050830;28;20044;-72
2021/06/19 05:22:26;;;;;;;12.38;6.85;;;22.40;75.00;;;;;;5051717;28;20031;-73
2021/06/19 05:24:52;;;;;;;7.60;6.80;;;22.50;76.20;;;;;;5047332;28;20029;-72
2021/06/19 05:27:18;;;;;;;7.38;6.50;;;22.50;74.40;;;;;;5041350;28;20036;-73
2021/06/19 05:29:44;;;;;;;7.47;6.30;;;22.50;74.50;;;;;;5042563;28;20016;-73
2021/06/19 05:32:09;;;;;;;10.68;6.93;;;22.60;73.20;;;;;;5040400;28;20067;-73
2021/06/19 05:34:35;;;;;;;7.03;5.97;;;22.60;73.70;;;;;;5042152;28;20040;-72
2021/06/19 05:37:01;;;;;;;11.55;6.80;;;22.70;73.10;;;;;;5038137;28;20528;-73
2021/06/19 05:39:27;;;;;;;8.38;5.95;;;22.80;72.00;;;;;;5038971;28;20029;-72
2021/06/19 05:41:52;;;;;;;9.05;6.30;;;22.80;72.30;;;;;;5037858;28;20037;-73
2021/06/19 05:44:18;;;;;;;7.68;5.72;;;22.90;73.30;;;;;;5041102;28;20111;-73
2021/06/19 05:46:44;;;;;;;8.63;6.13;;;23.00;72.30;;;;;;5040422;28;20068;-74
2021/06/19 05:49:10;;;;;;;7.93;6.22;;;23.10;71.00;;;;;;5037923;28;20475;-72
2021/06/19 05:51:37;;;;;;;6.38;5.70;;;23.10;70.20;;;;;;5041421;28;20017;-73
2021/06/19 05:54:03;;;;;;;6.35;5.63;;;23.20;71.50;;;;;;5045530;28;20401;-72
2021/06/19 05:56:30;;;;;;;9.40;6.53;;;23.20;69.50;;;;;;5043472;28;20079;-73
2021/06/19 05:58:55;;;;;;;7.05;6.35;;;23.40;69.30;;;;;;5043458;28;20028;-73
2021/06/19 06:01:22;;;;;;;6.53;5.90;;;23.50;70.40;;;;;;5042587;28;20029;-73
2021/06/19 06:03:50;;;;;;;7.85;5.75;;;23.60;67.70;;;;;;5043757;28;20139;-73
2021/06/19 06:06:17;;;;;;;8.57;6.03;;;23.70;67.70;;;;;;5042872;28;20021;-73
2021/06/19 06:08:44;;;;;;;8.80;6.18;;;23.70;67.20;;;;;;5043000;28;20013;-73
2021/06/19 06:11:10;;;;;;;7.18;6.57;;;23.80;66.30;;;;;;5043870;28;20033;-73
2021/06/19 06:13:36;;;;;;;9.45;6.72;;;23.90;68.20;;;;;;5043717;28;20025;-73
2021/06/19 06:16:02;;;;;;;7.35;5.55;;;24.00;67.70;;;;;;5045617;28;20874;-73
2021/06/19 06:18:27;;;;;;;6.68;5.25;;;24.00;67.60;;;;;;5044958;28;20052;-73
2021/06/19 06:20:54;;;;;;;7.03;5.65;;;24.20;66.60;;;;;;5045712;28;20037;-72
2021/06/19 06:23:23;;;;;;;7.13;4.95;;;24.30;65.30;;;;;;5044025;28;20024;-73
2021/06/19 06:25:49;;;;;;;8.75;5.90;;;24.50;63.70;;;;;;5043479;28;20367;-72
2021/06/19 06:28:14;;;;;;;6.43;5.82;;;24.50;63.60;;;;;;5045821;28;20112;-73
2021/06/19 06:30:40;;;;;;;6.95;5.25;;;24.70;62.20;;;;;;5043766;28;20144;-73
2021/06/19 06:33:06;;;;;;;6.25;5.55;;;24.70;61.40;;;;;;5045167;28;20045;-73
2021/06/19 06:35:31;;;;;;;7.75;4.80;;;24.80;61.20;;;;;;5045724;28;20067;-73
2021/06/19 06:37:57;;;;;;;6.72;5.70;;;24.90;62.00;;;;;;5045380;28;20037;-74
2021/06/19 06:40:23;;;;;;;9.63;5.32;;;25.10;63.90;;;;;;5043731;28;20059;-72
2021/06/19 06:42:48;;;;;;;5.13;4.63;;;25.10;61.00;;;;;;5046637;28;20383;-73
2021/06/19 06:45:15;;;;;;;7.80;5.47;;;25.10;59.40;;;;;;5043398;28;20065;-72
2021/06/19 06:47:41;;;;;;;6.75;5.30;;;25.10;58.70;;;;;;5045450;28;20028;-73
2021/06/19 06:50:08;;;;;;;6.68;5.13;;;25.30;59.50;;;;;;5044228;28;20025;-72
2021/06/19 06:52:35;;;;;;;5.97;4.78;;;25.30;58.80;;;;;;5042163;28;20045;-72
2021/06/19 06:55:02;;;;;;;7.15;4.90;;;25.50;58.60;;;;;;5044745;28;20027;-73
2021/06/19 06:57:28;;;;;;;7.65;5.28;;;25.60;58.40;;;;;;5042920;28;20022;-72
2021/06/19 06:59:53;;;;;;;5.35;4.85;;;25.80;57.20;;;;;;5033500;28;20479;-73
2021/06/19 07:02:19;;;;;;;4.93;4.50;;;25.80;56.60;;;;;;5032376;28;20025;-74
2021/06/19 07:04:45;;;;;;;6.28;5.68;;;25.90;55.80;;;;;;5045803;28;20394;-72
2021/06/19 07:07:10;;;;;;;8.13;4.65;;;25.90;56.40;;;;;;5055161;28;20061;-73
2021/06/19 07:09:36;;;;;;;5.43;4.90;;;26.00;57.20;;;;;;5036969;28;20033;-72
2021/06/19 07:12:03;;;;;;;5.95;4.72;;;26.20;56.10;;;;;;5034101;28;20041;-73
2021/06/19 07:14:28;;;;;;;7.40;4.53;;;26.40;56.20;;;;;;5034187;28;20073;-73
2021/06/19 07:16:54;;;;;;;5.10;4.07;;;26.40;54.80;;;;;;5041675;28;20475;-74
2021/06/19 07:19:20;;;;;;;4.65;4.22;;;26.40;55.00;;;;;;5044709;28;20087;-73
2021/06/19 07:21:45;;;;;;;5.10;4.38;;;26.40;54.10;;;;;;5044898;28;20070;-73
2021/06/19 07:24:11;;;;;;;6.30;4.38;;;26.30;53.90;;;;;;5042087;28;20475;-72
2021/06/19 07:26:37;;;;;;;5.07;4.50;;;26.60;54.60;;;;;;5040795;28;20108;-73
2021/06/19 07:29:02;;;;;;;5.88;4.15;;;26.70;54.30;;;;;;5042449;28;20026;-73
2021/06/19 07:31:29;;;;;;;6.63;4.18;;;26.90;53.30;;;;;;5048397;28;20086;-73
2021/06/19 07:33:54;;;;;;;4.95;4.03;;;27.10;53.70;;;;;;5049960;28;20025;-73
2021/06/19 07:36:21;;;;;;;9.05;4.65;;;27.20;55.00;;;;;;5044217;28;20066;-73
2021/06/19 07:38:47;;;;;;;4.50;4.10;;;27.20;54.00;;;;;;5053319;28;20025;-73
2021/06/19 07:41:12;;;;;;;5.65;4.38;;;27.10;52.80;;;;;;5054106;28;20504;-72
2021/06/19 07:43:39;;;;;;;4.93;3.92;;;26.90;52.80;;;;;;5042472;28;20030;-73
2021/06/19 07:46:05;;;;;;;5.90;3.85;;;26.90;52.50;;;;;;5045708;28;20387;-72
2021/06/19 07:48:30;;;;;;;5.07;4.13;;;27.10;52.70;;;;;;5044246;28;20021;-73
2021/06/19 07:50:56;;;;;;;4.47;4.07;;;27.20;52.90;;;;;;5046688;28;20032;-73
2021/06/19 07:53:22;;;;;;;5.57;3.75;;;27.30;53.10;;;;;;5042555;28;20033;-72
2021/06/19 07:55:48;;;;;;;6.57;3.97;;;27.50;52.70;;;;;;5042363;28;20032;-72
2021/06/19 07:58:14;;;;;;;4.90;3.90;;;27.70;52.60;;;;;;5043163;28;20438;-73
2021/06/19 08:00:39;;;;;;;6.20;4.00;;;27.80;51.40;;;;;;5044404;28;20128;-73
2021/06/19 08:03:05;;;;;;;5.43;3.47;;;27.80;51.70;;;;;;5042617;28;20393;-73
2021/06/19 08:05:30;;;;;;;5.80;3.40;;;27.90;52.20;;;;;;5042625;28;20068;-73
2021/06/19 08:07:56;;;;;;;5.00;3.63;;;27.80;51.90;;;;;;5039933;28;20744;-73
2021/06/19 08:10:25;;;;;;;4.65;3.72;;;27.70;51.60;;;;;;5043915;28;20033;-73
2021/06/19 08:12:50;;;;;;;5.65;3.55;;;27.70;52.30;;;;;;5042791;28;20021;-73
2021/06/19 08:15:16;;;;;;;4.95;3.60;;;27.80;53.10;;;;;;5036879;28;20025;-73
2021/06/19 08:17:41;;;;;;;3.40;3.10;;;28.00;52.00;;;;;;5038691;28;20033;-72
2021/06/19 08:20:08;;;;;;;6.88;3.20;;;28.00;51.50;;;;;;5039862;28;20036;-73
2021/06/19 08:22:34;;;;;;;4.35;3.25;;;28.10;50.10;;;;;;5042499;28;20071;-73
2021/06/19 08:24:59;;;;;;;4.13;3.45;;;28.10;50.60;;;;;;5042906;28;20025;-73
2021/06/19 08:27:26;;;;;;;6.45;3.75;;;28.20;52.50;;;;;;5044381;28;20502;-73
2021/06/19 08:29:54;;;;;;;4.85;4.40;;;28.30;52.00;;;;;;5041169;28;20029;-73
2021/06/19 08:32:20;;;;;;;5.57;4.00;;;28.20;53.90;;;;;;5043275;28;20466;-73
2021/06/19 08:34:47;;;;;;;3.97;3.63;;;28.00;54.30;;;;;;5041100;28;20049;-72
2021/06/19 08:37:12;;;;;;;4.65;4.25;;;27.90;54.40;;;;;;5041897;28;20021;-73
2021/06/19 08:39:38;;;;;;;6.40;3.88;;;28.00;55.10;;;;;;5042183;28;20497;-72
2021/06/19 08:42:04;;;;;;;4.57;4.18;;;27.80;53.50;;;;;;5043164;28;20068;-72
2021/06/19 08:44:30;;;;;;;6.40;4.80;;;27.80;53.60;;;;;;5041147;28;20044;-73
2021/06/19 08:46:57;;;;;;;8.38;4.30;;;27.70;54.50;;;;;;5042237;28;20466;-73
2021/06/19 08:49:26;;;;;;;3.78;3.40;;;27.80;55.20;;;;;;5040534;28;20025;-73
2021/06/19 08:51:57;;;;;;;3.88;3.55;;;27.90;53.00;;;;;;5039771;28;20014;-73
2021/06/19 08:54:23;;;;;;;3.42;3.10;;;28.00;52.90;;;;;;5042135;28;20032;-72
2021/06/19 08:56:50;;;;;;;4.03;3.63;;;28.10;53.20;;;;;;5043222;28;20363;-73
2021/06/19 08:59:16;;;;;;;5.40;3.55;;;28.00;53.30;;;;;;5038961;28;20033;-73
2021/06/19 09:01:42;;;;;;;3.85;3.55;;;28.00;53.50;;;;;;5032240;28;20021;-73
2021/06/19 09:04:10;;;;;;;5.07;3.20;;;28.00;53.10;;;;;;5038641;28;20025;-72
2021/06/19 09:06:44;;;;;;;4.28;3.92;;;27.70;53.70;;;;;;5053055;28;20013;-72
2021/06/19 09:09:16;;;;;;;6.03;3.63;;;27.90;53.90;;;;;;5045941;28;20420;-72
2021/06/19 09:11:44;;;;;;;4.70;3.55;;;27.90;54.40;;;;;;5040309;28;20047;-72
2021/06/19 09:14:16;;;;;;;5.18;3.75;;;28.10;55.10;;;;;;5049286;28;20029;-72
2021/06/19 09:16:45;;;;;;;6.47;4.20;;;27.90;53.20;;;;;;5046617;28;20022;-72
2021/06/19 09:19:34;;;;;;;5.57;3.67;;;27.80;53.90;;;;;;5041625;28;20557;-72
2021/06/19 09:22:19;;;;;;;5.43;3.90;;;27.90;54.30;;;;;;5041896;28;20025;-73
2021/06/19 09:24:56;;;;;;;5.82;4.13;;;28.20;54.20;;;;;;5042457;28;20037;-72
2021/06/19 09:27:40;;;;;;;5.93;3.47;;;28.30;53.90;;;;;;5046149;28;20029;-72
2021/06/19 09:30:13;;;;;;;4.78;3.28;;;28.50;53.50;;;;;;5049401;28;20020;-72
2021/06/19 09:32:42;;;;;;;7.15;3.75;;;28.60;50.30;;;;;;5047361;28;20021;-73
2021/06/19 09:35:26;;;;;;;3.35;3.05;;;28.80;50.80;;;;;;5041330;28;20021;-72
2021/06/19 09:38:14;;;;;;;4.28;2.78;;;29.00;50.90;;;;;;5043280;28;20109;-73
2021/06/19 09:40:47;;;;;;;3.28;3.08;;;29.20;50.90;;;;;;5039822;28;20483;-72
2021/06/19 09:43:16;;;;;;;3.30;3.00;;;29.20;50.40;;;;;;5040544;28;20055;-73
2021/06/19 09:46:01;;;;;;;3.35;3.05;;;29.20;50.90;;;;;;5041068;28;20367;-73
2021/06/19 09:48:30;;;;;;;4.50;3.47;;;28.90;50.50;;;;;;5041491;28;20018;-73
2021/06/19 09:51:13;;;;;;;4.55;2.95;;;28.90;51.40;;;;;;5040310;28;20501;-72
2021/06/19 09:53:40;;;;;;;4.45;3.05;;;28.90;49.50;;;;;;5041045;28;20500;-73
2021/06/19 09:56:08;;;;;;;4.13;3.63;;;28.80;50.10;;;;;;5039700;28;20025;-72
2021/06/19 09:58:45;;;;;;;5.05;2.92;;;28.80;50.40;;;;;;5041920;28;20017;-72
2021/06/19 10:01:17;;;;;;;4.30;3.42;;;28.90;52.30;;;;;;5051184;28;20065;-72
2021/06/19 10:03:54;;;;;;;5.32;3.67;;;29.10;50.40;;;;;;5051157;28;20027;-73
2021/06/19 10:06:20;;;;;;;3.92;3.55;;;29.20;50.90;;;;;;5031269;28;20443;-73
2021/06/19 10:08:48;;;;;;;4.78;3.55;;;29.20;51.40;;;;;;5032753;28;20033;-73
2021/06/19 10:11:14;;;;;;;4.60;3.95;;;29.00;49.50;;;;;;5032422;28;20521;-72
2021/06/19 10:13:44;;;;;;;5.50;4.25;;;28.80;49.80;;;;;;5032694;28;20391;-72
2021/06/19 10:16:15;;;;;;;4.53;3.63;;;28.70;48.90;;;;;;5031422;28;20067;-72
2021/06/19 10:18:42;;;;;;;6.85;3.92;;;28.80;48.90;;;;;;5032642;28;20030;-73
2021/06/19 10:21:09;;;;;;;4.80;4.28;;;29.10;50.40;;;;;;5039888;28;20037;-72
2021/06/19 10:23:36;;;;;;;4.30;3.88;;;29.10;49.20;;;;;;5052341;28;20032;-73
2021/06/19 10:26:02;;;;;;;5.38;4.10;;;29.30;49.30;;;;;;5051048;28;20071;-72
2021/06/19 10:28:30;;;;;;;11.05;4.70;;;29.20;47.70;;;;;;5052476;28;20070;-72
2021/06/19 10:30:56;;;;;;;5.75;4.15;;;29.40;47.40;;;;;;5050618;28;20497;-73
2021/06/19 10:33:26;;;;;;;3.50;3.20;;;29.40;45.90;;;;;;5051666;28;20033;-72
2021/06/19 10:35:54;;;;;;;4.47;3.72;;;29.50;44.90;;;;;;5036123;28;20076;-72
2021/06/19 10:38:20;;;;;;;6.28;3.78;;;29.70;45.30;;;;;;5044443;28;20021;-72
2021/06/19 10:40:57;;;;;;;5.82;4.28;;;29.90;47.30;;;;;;5045165;28;20082;-72
2021/06/19 10:43:24;;;;;;;4.28;3.88;;;29.90;48.10;;;;;;5045689;28;20009;-72
2021/06/19 10:45:50;;;;;;;5.82;4.55;;;29.70;47.80;;;;;;5044922;28;20036;-72
2021/06/19 10:48:18;;;;;;;8.85;4.22;;;29.80;47.90;;;;;;5042849;28;20410;-73
2021/06/19 10:50:47;;;;;;;5.45;3.92;;;29.90;47.40;;;;;;5048175;28;20029;-72
2021/06/19 10:53:18;;;;;;;4.75;4.30;;;29.90;45.90;;;;;;5050706;28;20071;-72
2021/06/19 10:55:44;;;;;;;6.78;4.32;;;29.90;45.50;;;;;;5055836;28;20528;-72
2021/06/19 10:58:29;;;;;;;4.20;3.70;;;30.00;45.60;;;;;;5047785;28;20029;-72
2021/06/19 11:00:55;;;;;;;5.55;3.53;;;29.80;45.80;;;;;;5044193;28;20061;-73
2021/06/19 11:03:48;;;;;;;5.25;4.15;;;29.70;45.80;;;;;;5044719;28;20048;-72
2021/06/19 11:06:26;;;;;;;5.68;3.30;;;29.70;46.30;;;;;;5042476;28;20549;-73
2021/06/19 11:09:16;;;;;;;3.10;2.83;;;29.90;46.10;;;;;;5044781;28;20023;-72
2021/06/19 11:11:56;;;;;;;4.03;3.53;;;30.10;44.70;;;;;;5041965;28;20021;-72
2021/06/19 11:14:40;;;;;;;5.95;3.40;;;30.10;47.00;;;;;;5041908;28;20025;-72
2021/06/19 11:17:09;;;;;;;5.75;3.15;;;30.10;45.30;;;;;;5042297;28;20024;-72
2021/06/19 11:19:47;;;;;;;4.72;3.40;;;30.00;44.70;;;;;;5041506;28;20403;-72
2021/06/19 11:22:29;;;;;;;3.97;3.33;;;30.00;46.80;;;;;;5042925;28;20493;-72
2021/06/19 11:25:26;;;;;;;5.43;3.50;;;29.80;45.50;;;;;;5044710;28;20400;-72
2021/06/19 11:27:56;;;;;;;3.70;3.30;;;29.80;45.80;;;;;;5044393;28;20018;-72
2021/06/19 11:30:37;;;;;;;3.80;2.80;;;29.80;44.90;;;;;;5042942;28;20104;-72
2021/06/19 11:33:26;;;;;;;3.97;2.80;;;29.80;45.00;;;;;;5054412;28;20037;-72
2021/06/19 11:36:14;;;;;;;3.70;2.97;;;29.90;44.30;;;;;;5041697;28;20393;-72
2021/06/19 11:38:57;;;;;;;2.85;2.60;;;29.70;44.90;;;;;;5044548;28;20525;-72
2021/06/19 11:41:33;;;;;;;2.78;2.53;;;29.80;44.10;;;;;;5044336;28;20036;-73
2021/06/19 11:43:59;;;;;;;6.18;2.65;;;29.70;43.20;;;;;;5042251;28;20075;-72
2021/06/19 11:46:25;;;;;;;4.20;3.33;;;29.80;43.10;;;;;;5042886;28;20031;-72
2021/06/19 11:48:53;;;;;;;4.25;2.83;;;29.90;42.90;;;;;;5043216;28;20044;-73
2021/06/19 11:51:22;;;;;;;3.60;2.88;;;30.00;43.50;;;;;;5041314;28;20032;-72
2021/06/19 11:53:48;;;;;;;8.93;3.92;;;30.10;44.10;;;;;;5043607;28;20021;-73
2021/06/19 11:56:16;;;;;;;4.28;2.50;;;30.20;44.60;;;;;;5042617;28;20375;-73
2021/06/19 11:58:49;;;;;;;6.05;3.03;;;30.50;44.20;;;;;;5042934;28;20382;-73
2021/06/19 12:01:17;;;;;;;4.15;3.42;;;30.50;42.00;;;;;;5043602;28;20041;-72
2021/06/19 12:03:43;;;;;;;5.57;3.40;;;30.50;43.30;;;;;;5043979;28;20025;-72
2021/06/19 12:06:10;;;;;;;3.67;3.15;;;30.40;44.50;;;;;;5038673;28;20024;-72
2021/06/19 12:08:35;;;;;;;5.25;3.10;;;30.50;44.70;;;;;;5042056;28;20060;-72
2021/06/19 12:11:02;;;;;;;6.18;3.38;;;30.60;43.80;;;;;;5040572;28;20053;-72
2021/06/19 12:13:42;;;;;;;7.47;3.47;;;30.40;43.10;;;;;;5043244;28;20100;-73
2021/06/19 12:16:09;;;;;;;12.70;4.18;;;30.50;43.00;;;;;;5042476;28;20017;-72
2021/06/19 12:18:35;;;;;;;5.53;3.75;;;30.40;42.90;;;;;;5041994;28;20033;-72
2021/06/19 12:21:10;;;;;;;3.97;3.63;;;30.50;44.00;;;;;;5043613;28;20028;-72
2021/06/19 12:23:37;;;;;;;5.55;3.30;;;30.70;43.80;;;;;;5043534;28;20029;-73
2021/06/19 12:26:15;;;;;;;6.57;3.45;;;30.50;43.10;;;;;;5042347;28;20079;-72
2021/06/19 12:28:49;;;;;;;5.13;3.25;;;30.40;42.60;;;;;;5043664;28;20047;-72
2021/06/19 12:31:17;;;;;;;5.00;3.08;;;30.60;42.30;;;;;;5040770;28;20017;-72
2021/06/19 12:33:44;;;;;;;4.00;3.60;;;30.60;42.80;;;;;;5042582;28;20029;-72
2021/06/19 12:36:12;;;;;;;4.82;3.38;;;30.80;41.60;;;;;;5042666;28;20043;-72
2021/06/19 12:38:43;;;;;;;3.35;3.05;;;30.90;41.20;;;;;;5040435;28;20104;-72
2021/06/19 12:41:09;;;;;;;4.13;3.58;;;30.80;42.10;;;;;;5040784;28;20021;-72
2021/06/19 12:43:50;;;;;;;7.60;3.25;;;30.80;41.50;;;;;;5047401;28;20032;-73
2021/06/19 12:46:17;;;;;;;4.63;2.92;;;31.00;42.00;;;;;;5040119;28;20044;-73
2021/06/19 12:48:43;;;;;;;4.18;3.40;;;30.90;40.50;;;;;;5043660;28;20521;-73
2021/06/19 12:51:29;;;;;;;3.72;3.28;;;31.20;41.70;;;;;;5034631;28;20120;-72
2021/06/19 12:54:21;;;;;;;4.35;3.17;;;31.10;40.60;;;;;;5042072;28;20028;-72